Green Village, New Jersey
Current Conditions -  °F | °C
As of 2:46 PM on Wednesday 17 Dec 2014 (Local Time) from KMMU Reporting Station
Overcast Overcast  
Wind Chill: 52°   Ceiling: 4000
Heat Index: 52°   Visibility: 20mi
Dew Point: 39°   Wind: 14mph
Humidity: 62%   Direction: 310°NW
Pressure: 29.84"   Gusts: 25mph
Location:  40.74°N, 74.45°W
Report Text: KMMU 171946Z 31012G22KT 20SM OVC040 11/04 A2984 RMK BINOVC
Loading
Personal Weather Stations






























Interactive Weather Map New forecast layout! Learn more

10-Day Weather Forecast

Advertisements
Track Severe Weather on mobile